Mount Morgan, Australia
Current Conditions -  °F | °C
As of 5:00 PM on Sunday 26 Oct 2014 (Local Time) from YBRK Reporting Station
Clear Clear  
Wind Chill: 86°   Ceiling: Unl
Heat Index: 87°   Visibility: 6mi
Dew Point: 63°   Wind: 13mph
Humidity: 45%   Direction: 10°N
Pressure: 29.88"   Gusts: NA
Location:  23.65°S, 150.39°E
Report Text: YBRK 260700Z 01011KT CAVOK 30/17 Q1012
Loading
Personal Weather Stations






























Interactive Weather Map
Tropical Storm Tracking
New forecast layout! Learn more

10-Day Weather Forecast

Advertisements
Track Severe Weather on mobile